createdAt,value
2022-12-15T00:00:29.564Z,47.53
2022-12-15T00:03:16.078Z,40.07
2022-12-15T00:06:02.536Z,39.00
2022-12-15T00:08:49.347Z,38.20
2022-12-15T00:11:36.438Z,42.90
2022-12-15T00:14:23.327Z,36.63
2022-12-15T00:17:09.482Z,35.73
2022-12-15T00:19:55.785Z,38.70
2022-12-15T00:22:42.497Z,43.93
2022-12-15T00:25:28.827Z,40.10
2022-12-15T00:28:16.884Z,39.30
2022-12-15T00:31:03.103Z,44.43
2022-12-15T00:33:49.309Z,38.03
2022-12-15T00:36:35.645Z,38.50
2022-12-15T00:39:04.106Z,47.00
2022-12-15T00:41:32.023Z,32.97
2022-12-15T00:44:00.202Z,41.47
2022-12-15T00:46:46.868Z,39.13
2022-12-15T00:49:33.126Z,43.20
2022-12-15T00:52:19.274Z,45.90
2022-12-15T00:55:05.607Z,40.00
2022-12-15T00:57:51.700Z,38.73
2022-12-15T01:00:39.332Z,45.30
2022-12-15T01:03:41.675Z,41.63
2022-12-15T01:06:35.097Z,38.40
2022-12-15T01:09:27.583Z,36.47
2022-12-15T01:12:13.882Z,40.93
2022-12-15T01:15:00.504Z,43.30
2022-12-15T01:17:47.423Z,42.90
2022-12-15T01:20:20.713Z,39.00
2022-12-15T01:22:55.573Z,35.53
2022-12-15T01:25:27.616Z,35.20
2022-12-15T01:27:55.489Z,36.87
2022-12-15T01:30:27.539Z,38.27
2022-12-15T01:32:55.265Z,38.00
2022-12-15T01:35:23.153Z,37.50
2022-12-15T01:37:50.803Z,41.90
2022-12-15T01:40:40.367Z,37.60
2022-12-15T01:43:32.117Z,34.17
2022-12-15T01:46:11.099Z,34.03
2022-12-15T01:49:15.793Z,39.20
2022-12-15T01:51:52.460Z,35.80
2022-12-15T01:54:41.062Z,39.63
2022-12-15T01:57:25.654Z,31.13
2022-12-15T02:00:04.021Z,32.97
2022-12-15T02:02:40.411Z,36.17
2022-12-15T02:05:10.444Z,38.80
2022-12-15T02:07:38.314Z,40.50
2022-12-15T02:10:10.406Z,37.10
2022-12-15T02:13:28.860Z,38.13
2022-12-15T02:16:32.560Z,37.63
2022-12-15T02:20:21.713Z,32.93
2022-12-15T02:22:57.916Z,35.50
2022-12-15T02:26:30.329Z,41.37
2022-12-15T02:29:42.712Z,35.93
2022-12-15T02:32:37.216Z,32.73
2022-12-15T02:35:47.307Z,41.63
2022-12-15T02:38:15.092Z,41.60
2022-12-15T02:40:43.062Z,38.20
2022-12-15T02:43:11.751Z,37.13
2022-12-15T02:46:46.053Z,40.80
2022-12-15T02:50:12.114Z,37.47
2022-12-15T02:53:28.926Z,38.80
2022-12-15T02:57:06.123Z,42.60
2022-12-15T03:00:01.189Z,41.40
2022-12-15T03:02:38.105Z,38.73
2022-12-15T03:05:08.392Z,38.83
2022-12-15T03:07:36.103Z,39.07
2022-12-15T03:10:07.834Z,32.23
2022-12-15T03:12:35.463Z,30.80
2022-12-15T03:15:03.601Z,37.03
2022-12-15T03:17:31.268Z,53.77
2022-12-15T03:19:58.863Z,40.67
2022-12-15T03:22:26.586Z,38.00
2022-12-15T03:24:54.408Z,43.60
2022-12-15T03:27:22.936Z,39.47
2022-12-15T03:29:50.623Z,48.03
2022-12-15T03:32:18.275Z,41.07
2022-12-15T03:34:45.944Z,38.87
2022-12-15T03:37:13.471Z,36.43
2022-12-15T03:39:41.108Z,37.53
2022-12-15T03:42:08.917Z,41.93
2022-12-15T03:44:36.560Z,43.30
2022-12-15T03:47:04.220Z,37.03
2022-12-15T03:49:31.832Z,41.30
2022-12-15T03:51:59.380Z,34.57
2022-12-15T03:54:26.973Z,46.07
2022-12-15T03:56:54.676Z,30.27
2022-12-15T03:59:22.158Z,43.50
2022-12-15T04:01:49.960Z,42.83
2022-12-15T04:04:17.717Z,39.87
2022-12-15T04:06:45.453Z,40.17
2022-12-15T04:09:12.970Z,41.33
2022-12-15T04:11:40.590Z,41.43
2022-12-15T04:14:09.977Z,42.53
2022-12-15T04:16:37.658Z,35.47
2022-12-15T04:19:23.701Z,40.57
2022-12-15T04:21:51.351Z,45.77
2022-12-15T04:24:37.652Z,39.70
2022-12-15T04:27:24.928Z,35.77
2022-12-15T04:30:11.180Z,39.27
2022-12-15T04:32:57.563Z,39.93
2022-12-15T04:35:43.839Z,39.13
2022-12-15T04:38:37.556Z,33.97
2022-12-15T04:41:24.812Z,37.33
2022-12-15T04:44:10.802Z,37.87
2022-12-15T04:46:56.758Z,43.97
2022-12-15T04:49:42.796Z,36.13
2022-12-15T04:52:29.131Z,37.70
2022-12-15T04:55:15.423Z,44.73
2022-12-15T04:58:01.782Z,47.63
2022-12-15T05:00:47.971Z,45.30
2022-12-15T05:03:34.841Z,39.73
2022-12-15T05:06:21.226Z,40.37
2022-12-15T05:09:07.535Z,37.80
2022-12-15T05:11:53.926Z,47.13
2022-12-15T05:14:40.298Z,44.40
2022-12-15T05:17:26.670Z,44.73
2022-12-15T05:20:12.717Z,38.43
2022-12-15T05:22:58.958Z,44.87
2022-12-15T05:25:45.175Z,50.03
2022-12-15T05:28:31.398Z,52.50
2022-12-15T05:31:17.742Z,42.97
2022-12-15T05:33:45.400Z,46.77
2022-12-15T05:36:12.974Z,54.60
2022-12-15T05:38:40.803Z,39.17
2022-12-15T05:41:08.707Z,56.53
2022-12-15T05:43:36.276Z,45.40
2022-12-15T05:46:06.041Z,38.20
2022-12-15T05:48:33.916Z,50.93
2022-12-15T05:51:19.336Z,50.07
2022-12-15T05:53:46.933Z,57.00
2022-12-15T05:56:15.919Z,41.50
2022-12-15T05:58:45.609Z,45.27
2022-12-15T06:01:19.797Z,46.90
2022-12-15T06:03:48.394Z,49.97
2022-12-15T06:06:16.107Z,52.17
2022-12-15T06:08:45.351Z,52.80
2022-12-15T06:11:33.391Z,43.70
2022-12-15T06:14:06.012Z,41.90
2022-12-15T06:16:50.515Z,53.33
2022-12-15T06:19:23.674Z,54.67
2022-12-15T06:21:54.162Z,50.17
2022-12-15T06:24:22.537Z,52.40
2022-12-15T06:26:50.912Z,41.63
2022-12-15T06:29:20.037Z,49.43
2022-12-15T06:31:48.230Z,52.10
2022-12-15T06:34:18.066Z,62.13
2022-12-15T06:36:46.181Z,45.47
2022-12-15T06:39:17.367Z,52.70
2022-12-15T06:41:45.427Z,44.67
2022-12-15T06:44:16.710Z,53.40
2022-12-15T06:46:46.232Z,52.80
2022-12-15T06:49:14.766Z,50.37
2022-12-15T06:51:44.106Z,58.50
2022-12-15T06:54:13.118Z,50.63
2022-12-15T06:56:41.227Z,45.03
2022-12-15T06:59:10.765Z,58.27
2022-12-15T07:01:38.752Z,54.63
2022-12-15T07:04:07.202Z,48.80
2022-12-15T07:06:38.007Z,48.90
2022-12-15T07:09:16.215Z,47.67
2022-12-15T07:11:44.249Z,59.53
2022-12-15T07:14:11.919Z,50.30
2022-12-15T07:16:39.607Z,51.00
2022-12-15T07:19:12.943Z,49.90
2022-12-15T07:21:41.620Z,48.50
2022-12-15T07:24:14.316Z,54.73
2022-12-15T07:26:42.736Z,48.47
2022-12-15T07:29:12.000Z,55.03
2022-12-15T07:31:39.905Z,51.43
2022-12-15T07:34:07.568Z,54.47
2022-12-15T07:36:35.286Z,50.53
2022-12-15T07:39:04.912Z,47.53
2022-12-15T07:41:32.733Z,61.13
2022-12-15T07:44:00.324Z,52.10
2022-12-15T07:46:29.229Z,48.27
2022-12-15T07:48:57.091Z,49.13
2022-12-15T07:51:24.780Z,47.47
2022-12-15T07:53:52.914Z,49.47
2022-12-15T07:56:23.083Z,55.07
2022-12-15T07:58:52.205Z,68.63
2022-12-15T08:01:19.845Z,66.53
2022-12-15T08:03:49.487Z,45.87
2022-12-15T08:06:17.338Z,61.47
2022-12-15T08:08:49.896Z,55.50
2022-12-15T08:11:25.017Z,48.40
2022-12-15T08:14:02.561Z,57.23
2022-12-15T08:16:33.417Z,60.53
2022-12-15T08:19:01.108Z,70.63
2022-12-15T08:21:29.094Z,74.97
2022-12-15T08:23:56.804Z,70.50
2022-12-15T08:26:30.039Z,59.60
2022-12-15T08:29:24.512Z,61.03
2022-12-15T08:31:50.711Z,53.30
2022-12-15T08:34:18.372Z,67.07
2022-12-15T08:36:45.972Z,60.83
2022-12-15T08:39:13.873Z,51.70
2022-12-15T08:41:41.672Z,70.20
2022-12-15T08:44:09.371Z,65.43
2022-12-15T08:46:37.035Z,59.57
2022-12-15T08:49:05.037Z,58.23
2022-12-15T08:51:34.227Z,53.83
2022-12-15T08:54:02.888Z,52.73
2022-12-15T08:56:31.576Z,54.00
2022-12-15T08:59:03.479Z,53.13
2022-12-15T09:01:33.467Z,53.20
2022-12-15T09:04:04.267Z,57.30
2022-12-15T09:06:36.989Z,51.50
2022-12-15T09:09:11.560Z,57.97
2022-12-15T09:11:39.594Z,53.40
2022-12-15T09:14:08.193Z,54.00
2022-12-15T09:16:36.248Z,58.23
2022-12-15T09:19:05.095Z,61.80
2022-12-15T09:21:32.794Z,55.20
2022-12-15T09:24:03.818Z,59.60
2022-12-15T09:26:35.174Z,55.13
2022-12-15T09:29:03.408Z,58.13
2022-12-15T09:31:38.267Z,58.30
2022-12-15T09:34:06.675Z,56.33
2022-12-15T09:36:34.543Z,57.47
2022-12-15T09:39:03.141Z,49.87
2022-12-15T09:41:36.135Z,55.57
2022-12-15T09:44:23.119Z,53.27
2022-12-15T09:47:17.767Z,53.93
2022-12-15T09:50:03.731Z,54.93
2022-12-15T09:53:00.429Z,58.20
2022-12-15T09:55:33.354Z,63.87
2022-12-15T09:59:01.957Z,58.90
2022-12-15T10:02:01.484Z,51.67
2022-12-15T10:05:18.654Z,52.23
2022-12-15T10:07:50.519Z,52.67
2022-12-15T10:11:17.156Z,60.73
2022-12-15T10:14:07.560Z,57.60
2022-12-15T10:17:25.325Z,58.93
2022-12-15T10:20:31.348Z,56.20
2022-12-15T10:23:17.389Z,62.97
2022-12-15T10:26:29.873Z,55.10
2022-12-15T10:29:43.252Z,61.47
2022-12-15T10:32:43.036Z,65.50
2022-12-15T10:35:33.085Z,64.23
2022-12-15T10:38:22.193Z,61.77
2022-12-15T10:41:15.498Z,62.57
2022-12-15T10:43:50.349Z,71.47
2022-12-15T10:46:32.347Z,64.87
2022-12-15T10:49:24.531Z,66.10
2022-12-15T10:52:02.889Z,75.47
2022-12-15T10:54:48.463Z,66.37
2022-12-15T10:57:31.785Z,66.67
2022-12-15T11:00:15.028Z,74.10
2022-12-15T11:02:43.165Z,67.17
2022-12-15T11:05:17.352Z,68.90
2022-12-15T11:08:16.124Z,73.23
2022-12-15T11:11:16.830Z,70.87
2022-12-15T11:14:27.530Z,63.17
2022-12-15T11:16:59.811Z,65.80
2022-12-15T11:19:58.083Z,77.57
2022-12-15T11:22:58.641Z,65.73
2022-12-15T11:25:55.218Z,64.07
2022-12-15T11:29:02.012Z,70.50
2022-12-15T11:31:45.371Z,71.37
2022-12-15T11:34:24.934Z,68.97
2022-12-15T11:37:41.229Z,57.87
2022-12-15T11:40:40.704Z,63.20
2022-12-15T11:44:09.939Z,66.93
2022-12-15T11:47:03.284Z,73.77
2022-12-15T11:49:59.151Z,67.27
2022-12-15T11:53:00.622Z,68.63
2022-12-15T11:55:43.436Z,61.07
2022-12-15T11:58:45.095Z,72.80
2022-12-15T12:02:13.304Z,70.97
2022-12-15T12:05:24.135Z,69.10
2022-12-15T12:08:20.212Z,63.23
2022-12-15T12:11:16.972Z,74.60
2022-12-15T12:15:02.112Z,66.87
2022-12-15T12:17:52.025Z,66.83
2022-12-15T12:20:35.428Z,64.87
2022-12-15T12:23:28.980Z,61.77
2022-12-15T12:26:36.917Z,54.10
2022-12-15T12:29:50.821Z,62.63
2022-12-15T12:33:26.334Z,61.83
2022-12-15T12:36:13.298Z,54.57
2022-12-15T12:38:56.923Z,70.93
2022-12-15T12:42:25.752Z,57.90
2022-12-15T12:44:53.648Z,60.77
2022-12-15T12:47:41.059Z,68.20
2022-12-15T12:50:25.226Z,57.53
2022-12-15T12:53:01.165Z,65.10
2022-12-15T12:55:42.599Z,59.33
2022-12-15T12:58:42.219Z,67.20
2022-12-15T13:01:25.423Z,60.83
2022-12-15T13:04:38.759Z,66.40
2022-12-15T13:07:43.350Z,58.47
2022-12-15T13:10:23.519Z,59.80
2022-12-15T13:12:59.779Z,56.27
2022-12-15T13:15:30.520Z,65.23
2022-12-15T13:18:23.386Z,58.13
2022-12-15T13:20:57.614Z,61.93
2022-12-15T13:23:40.251Z,60.03
2022-12-15T13:26:07.932Z,70.90
2022-12-15T13:28:42.903Z,67.87
2022-12-15T13:31:22.774Z,73.13
2022-12-15T13:33:50.439Z,58.53
2022-12-15T13:36:42.436Z,58.27
2022-12-15T13:39:12.813Z,59.30
2022-12-15T13:45:12.285Z,73.57
2022-12-15T13:47:41.053Z,63.33
2022-12-15T13:50:36.356Z,69.50
2022-12-15T13:53:20.282Z,71.77
2022-12-15T13:56:52.960Z,72.33
2022-12-15T13:59:33.436Z,85.90
2022-12-15T14:02:01.429Z,81.37
2022-12-15T14:04:29.243Z,69.70
2022-12-15T14:07:02.907Z,74.33
2022-12-15T14:09:42.310Z,69.47
2022-12-15T14:12:14.596Z,67.67
2022-12-15T14:14:51.099Z,72.43
2022-12-15T14:17:20.603Z,62.20
2022-12-15T14:19:51.474Z,56.90
2022-12-15T14:22:30.509Z,48.43
2022-12-15T14:25:24.218Z,58.60
2022-12-15T14:27:52.252Z,56.27
2022-12-15T14:30:33.426Z,63.83
2022-12-15T14:33:18.612Z,60.53
2022-12-15T14:35:53.188Z,59.53
2022-12-15T14:38:36.706Z,70.73
2022-12-15T14:41:06.484Z,62.43
2022-12-15T14:43:40.334Z,57.90
2022-12-15T14:46:17.627Z,61.37
2022-12-15T14:49:03.203Z,62.70
2022-12-15T14:51:48.585Z,57.90
2022-12-15T14:54:51.465Z,57.47
2022-12-15T14:57:45.061Z,67.67
2022-12-15T15:00:48.862Z,65.10
2022-12-15T15:03:20.208Z,63.93
2022-12-15T15:06:01.233Z,61.03
2022-12-15T15:08:52.726Z,63.80
2022-12-15T15:11:35.538Z,63.77
2022-12-15T15:14:25.761Z,66.80
2022-12-15T15:17:13.305Z,76.53
2022-12-15T15:20:29.164Z,73.20
2022-12-15T15:23:13.297Z,71.07
2022-12-15T15:26:08.326Z,68.83
2022-12-15T15:28:45.205Z,71.63
2022-12-15T15:31:41.379Z,67.20
2022-12-15T15:34:22.864Z,64.07
2022-12-15T15:36:50.556Z,69.20
2022-12-15T15:39:20.407Z,65.80
2022-12-15T15:41:47.959Z,68.00
2022-12-15T15:44:16.463Z,73.37
2022-12-15T15:46:52.755Z,68.30
2022-12-15T15:49:24.612Z,75.97
2022-12-15T15:51:52.360Z,73.77
2022-12-15T15:54:31.771Z,74.20
2022-12-15T15:56:59.485Z,74.40
2022-12-15T15:59:29.079Z,70.10
2022-12-15T16:01:59.257Z,75.17
2022-12-15T16:04:27.676Z,72.60
2022-12-15T16:06:55.436Z,61.23
2022-12-15T16:09:25.690Z,76.53
2022-12-15T16:11:53.832Z,72.50
2022-12-15T16:14:22.096Z,73.40
2022-12-15T16:16:49.869Z,83.10
2022-12-15T16:19:17.675Z,82.63
2022-12-15T16:21:45.517Z,69.10
2022-12-15T16:24:19.875Z,77.10
2022-12-15T16:26:51.754Z,69.23
2022-12-15T16:29:21.999Z,78.97
2022-12-15T16:31:50.047Z,82.40
2022-12-15T16:34:19.321Z,67.03
2022-12-15T16:36:47.677Z,88.93
2022-12-15T16:39:30.613Z,81.40
2022-12-15T16:41:59.244Z,76.63
2022-12-15T16:44:29.632Z,80.80
2022-12-15T16:46:59.125Z,70.53
2022-12-15T16:49:35.145Z,78.23
2022-12-15T16:52:28.735Z,74.10
2022-12-15T16:54:59.892Z,77.70
2022-12-15T16:57:31.630Z,78.13
2022-12-15T17:00:02.679Z,86.93
2022-12-15T17:02:34.728Z,77.23
2022-12-15T17:05:03.236Z,83.67
2022-12-15T17:07:30.888Z,87.20
2022-12-15T17:09:59.200Z,88.40
2022-12-15T17:12:30.200Z,95.13
2022-12-15T17:15:03.094Z,84.27
2022-12-15T17:17:33.999Z,78.33
2022-12-15T17:20:28.568Z,86.03
2022-12-15T17:23:23.175Z,89.47
2022-12-15T17:26:20.999Z,86.50
2022-12-15T17:28:44.398Z,73.60
2022-12-15T17:31:23.519Z,84.07
2022-12-15T17:33:51.707Z,88.87
2022-12-15T17:36:31.017Z,74.17
2022-12-15T17:39:07.912Z,71.60
2022-12-15T17:44:38.822Z,78.57
2022-12-15T17:47:11.112Z,75.03
2022-12-15T17:49:42.656Z,89.67
2022-12-15T17:52:35.346Z,89.03
2022-12-15T17:55:34.794Z,81.27
2022-12-15T17:58:25.921Z,74.50
2022-12-15T18:00:59.526Z,92.73
2022-12-15T18:03:31.104Z,88.23
2022-12-15T18:06:02.350Z,90.93
2022-12-15T18:08:37.622Z,91.87
2022-12-15T18:11:15.748Z,82.47
2022-12-15T18:13:47.141Z,96.67
2022-12-15T18:16:18.570Z,90.27
2022-12-15T18:18:50.189Z,89.50
2022-12-15T18:21:21.666Z,97.50
2022-12-15T18:24:00.759Z,91.77
2022-12-15T18:26:39.360Z,88.90
2022-12-15T18:29:18.299Z,72.83
2022-12-15T18:31:50.713Z,83.47
2022-12-15T18:34:23.632Z,89.50
2022-12-15T18:36:51.654Z,98.47
2022-12-15T18:39:24.312Z,84.00
2022-12-15T18:41:57.353Z,80.37
2022-12-15T18:44:31.596Z,111.07
2022-12-15T18:46:59.277Z,91.37
2022-12-15T18:49:27.628Z,84.50
2022-12-15T18:51:58.308Z,81.23
2022-12-15T18:54:26.719Z,93.53
2022-12-15T18:56:54.826Z,85.90
2022-12-15T18:59:22.896Z,80.17
2022-12-15T19:01:50.979Z,94.80
2022-12-15T19:04:18.881Z,84.90
2022-12-15T19:06:46.667Z,80.93
2022-12-15T19:09:35.824Z,79.67
2022-12-15T19:12:20.078Z,88.63
2022-12-15T19:14:53.037Z,81.23
2022-12-15T19:17:43.390Z,69.80
2022-12-15T19:20:39.241Z,80.80
2022-12-15T19:23:07.964Z,102.77
2022-12-15T19:25:36.524Z,119.43
2022-12-15T19:28:07.071Z,110.83
2022-12-15T19:30:40.232Z,109.03
2022-12-15T19:33:16.812Z,99.00
2022-12-15T19:35:51.209Z,103.10
2022-12-15T19:38:33.140Z,104.30
2022-12-15T19:41:01.180Z,101.63
2022-12-15T19:43:28.975Z,100.03
2022-12-15T19:45:57.916Z,100.33
2022-12-15T19:48:25.556Z,98.97
2022-12-15T19:50:54.606Z,94.77
2022-12-15T19:53:30.128Z,116.30
2022-12-15T19:56:03.656Z,95.53
2022-12-15T19:58:37.076Z,105.97
2022-12-15T20:01:17.908Z,100.93
2022-12-15T20:03:52.292Z,124.23
2022-12-15T20:06:27.327Z,107.93
2022-12-15T20:08:57.007Z,130.40
2022-12-15T20:11:31.724Z,109.40
2022-12-15T20:14:01.696Z,105.77
2022-12-15T20:16:29.364Z,124.57
2022-12-15T20:18:56.972Z,123.67
2022-12-15T20:21:34.560Z,114.93
2022-12-15T20:24:19.478Z,109.33
2022-12-15T20:26:47.979Z,122.23
2022-12-15T20:29:31.865Z,127.70
2022-12-15T20:32:00.238Z,121.53
2022-12-15T20:34:27.936Z,107.10
2022-12-15T20:36:55.693Z,100.27
2022-12-15T20:39:30.726Z,98.40
2022-12-15T20:41:58.604Z,99.00
2022-12-15T20:44:26.351Z,110.43
2022-12-15T20:46:54.848Z,113.70
2022-12-15T20:49:24.225Z,107.87
2022-12-15T20:51:52.912Z,101.67
2022-12-15T20:54:23.660Z,100.57
2022-12-15T20:56:51.854Z,105.63
2022-12-15T20:59:20.043Z,95.67
2022-12-15T21:01:47.818Z,97.80
2022-12-15T21:04:30.508Z,109.60
2022-12-15T21:06:58.222Z,104.10
2022-12-15T21:09:25.963Z,114.50
2022-12-15T21:11:55.249Z,92.13
2022-12-15T21:14:25.071Z,92.83
2022-12-15T21:16:54.132Z,94.47
2022-12-15T21:19:22.863Z,105.77
2022-12-15T21:21:54.939Z,89.50
2022-12-15T21:24:28.827Z,100.00
2022-12-15T21:26:56.967Z,103.80
2022-12-15T21:29:29.086Z,110.60
2022-12-15T21:31:57.411Z,101.83
2022-12-15T21:34:25.653Z,87.40
2022-12-15T21:36:55.592Z,96.70
2022-12-15T21:39:37.207Z,90.33
2022-12-15T21:42:20.983Z,113.37
2022-12-15T21:44:50.404Z,87.17
2022-12-15T21:47:47.637Z,96.93
2022-12-15T21:50:18.165Z,86.40
2022-12-15T21:52:47.752Z,88.13
2022-12-15T21:55:24.328Z,84.00
2022-12-15T21:57:52.500Z,91.37
2022-12-15T22:00:23.612Z,87.10
2022-12-15T22:02:54.266Z,101.70
2022-12-15T22:05:32.565Z,99.50
2022-12-15T22:08:17.988Z,90.90
2022-12-15T22:10:50.330Z,93.73
2022-12-15T22:13:24.380Z,88.60
2022-12-15T22:15:52.204Z,112.30
2022-12-15T22:18:20.084Z,96.23
2022-12-15T22:20:50.739Z,94.27
2022-12-15T22:23:20.659Z,84.90
2022-12-15T22:25:56.372Z,82.93
2022-12-15T22:28:28.723Z,86.17
2022-12-15T22:30:57.283Z,88.33
2022-12-15T22:33:28.218Z,92.80
2022-12-15T22:35:56.916Z,101.20
2022-12-15T22:38:25.304Z,86.43
2022-12-15T22:40:58.644Z,95.80
2022-12-15T22:43:44.581Z,86.47
2022-12-15T22:46:15.708Z,93.13
2022-12-15T22:48:47.684Z,83.10
2022-12-15T22:51:18.999Z,83.90
2022-12-15T22:53:46.867Z,83.73
2022-12-15T22:56:31.497Z,81.73
2022-12-15T22:59:12.884Z,80.37
2022-12-15T23:01:40.834Z,84.90
2022-12-15T23:04:08.594Z,82.17
2022-12-15T23:06:36.203Z,86.83
2022-12-15T23:09:05.185Z,73.10
2022-12-15T23:11:39.620Z,68.47
2022-12-15T23:14:16.892Z,77.20
2022-12-15T23:16:46.791Z,73.77
2022-12-15T23:19:23.988Z,86.30
2022-12-15T23:21:52.418Z,77.30
2022-12-15T23:24:20.535Z,76.30
2022-12-15T23:26:48.141Z,72.33
2022-12-15T23:29:15.869Z,68.70
2022-12-15T23:31:43.620Z,81.70
2022-12-15T23:34:11.735Z,73.00
2022-12-15T23:36:39.614Z,83.50
2022-12-15T23:39:07.223Z,84.80
2022-12-15T23:41:37.518Z,86.90
2022-12-15T23:44:08.424Z,66.47
2022-12-15T23:46:37.573Z,78.33
2022-12-15T23:49:07.620Z,84.57
2022-12-15T23:51:36.519Z,80.20
2022-12-15T23:54:05.802Z,74.70
2022-12-15T23:56:34.750Z,82.20
2022-12-15T23:59:03.707Z,84.30
